sensor_id;sensor_type;location;lat;lon;timestamp;P1;durP1;ratioP1;P2;durP2;ratioP2
73571;SDS011;61854;48.510;-2.770;2022-07-22T00:01:21;11.00;;;7.80;;
73571;SDS011;61854;48.510;-2.770;2022-07-22T00:03:47;13.32;;;8.55;;
73571;SDS011;61854;48.510;-2.770;2022-07-22T00:06:12;13.15;;;7.78;;
73571;SDS011;61854;48.510;-2.770;2022-07-22T00:08:38;15.15;;;8.60;;
73571;SDS011;61854;48.510;-2.770;2022-07-22T00:11:04;16.50;;;9.38;;
73571;SDS011;61854;48.510;-2.770;2022-07-22T00:13:30;13.18;;;9.43;;
73571;SDS011;61854;48.510;-2.770;2022-07-22T00:15:56;13.35;;;8.30;;
73571;SDS011;61854;48.510;-2.770;2022-07-22T00:18:22;14.38;;;8.98;;
73571;SDS011;61854;48.510;-2.770;2022-07-22T00:20:48;13.23;;;8.82;;
73571;SDS011;61854;48.510;-2.770;2022-07-22T00:23:13;13.20;;;9.35;;
73571;SDS011;61854;48.510;-2.770;2022-07-22T00:25:39;16.13;;;9.02;;
73571;SDS011;61854;48.510;-2.770;2022-07-22T00:28:05;12.32;;;8.73;;
73571;SDS011;61854;48.510;-2.770;2022-07-22T00:30:31;12.05;;;9.95;;
73571;SDS011;61854;48.510;-2.770;2022-07-22T00:32:57;16.58;;;9.77;;
73571;SDS011;61854;48.510;-2.770;2022-07-22T00:35:22;15.05;;;9.05;;
73571;SDS011;61854;48.510;-2.770;2022-07-22T00:37:48;15.00;;;9.02;;
73571;SDS011;61854;48.510;-2.770;2022-07-22T00:40:14;13.45;;;8.88;;
73571;SDS011;61854;48.510;-2.770;2022-07-22T00:42:39;13.77;;;9.63;;
73571;SDS011;61854;48.510;-2.770;2022-07-22T00:45:05;12.98;;;9.23;;
73571;SDS011;61854;48.510;-2.770;2022-07-22T00:47:32;15.27;;;9.70;;
73571;SDS011;61854;48.510;-2.770;2022-07-22T00:49:58;12.43;;;10.38;;
73571;SDS011;61854;48.510;-2.770;2022-07-22T00:52:23;13.07;;;10.75;;
73571;SDS011;61854;48.510;-2.770;2022-07-22T00:54:50;20.15;;;9.35;;
73571;SDS011;61854;48.510;-2.770;2022-07-22T00:57:16;16.90;;;10.50;;
73571;SDS011;61854;48.510;-2.770;2022-07-22T00:59:41;13.98;;;9.65;;
73571;SDS011;61854;48.510;-2.770;2022-07-22T01:02:07;14.95;;;10.27;;
73571;SDS011;61854;48.510;-2.770;2022-07-22T01:04:33;16.27;;;9.27;;
73571;SDS011;61854;48.510;-2.770;2022-07-22T01:06:59;16.83;;;10.65;;
73571;SDS011;61854;48.510;-2.770;2022-07-22T01:09:25;14.23;;;11.15;;
73571;SDS011;61854;48.510;-2.770;2022-07-22T01:11:50;12.25;;;10.02;;
73571;SDS011;61854;48.510;-2.770;2022-07-22T01:14:16;15.32;;;10.77;;
73571;SDS011;61854;48.510;-2.770;2022-07-22T01:16:42;16.10;;;11.07;;
73571;SDS011;61854;48.510;-2.770;2022-07-22T01:19:07;13.75;;;11.77;;
73571;SDS011;61854;48.510;-2.770;2022-07-22T01:21:33;14.95;;;11.10;;
73571;SDS011;61854;48.510;-2.770;2022-07-22T01:23:59;15.38;;;10.60;;
73571;SDS011;61854;48.510;-2.770;2022-07-22T01:26:24;15.15;;;10.40;;
73571;SDS011;61854;48.510;-2.770;2022-07-22T01:28:50;16.00;;;9.95;;
73571;SDS011;61854;48.510;-2.770;2022-07-22T01:31:16;15.18;;;9.90;;
73571;SDS011;61854;48.510;-2.770;2022-07-22T01:33:42;11.88;;;9.48;;
73571;SDS011;61854;48.510;-2.770;2022-07-22T01:36:07;12.55;;;9.45;;
73571;SDS011;61854;48.510;-2.770;2022-07-22T01:38:33;12.95;;;8.88;;
73571;SDS011;61854;48.510;-2.770;2022-07-22T01:40:59;12.85;;;9.38;;
73571;SDS011;61854;48.510;-2.770;2022-07-22T01:43:25;12.73;;;9.18;;
73571;SDS011;61854;48.510;-2.770;2022-07-22T01:45:51;13.48;;;9.70;;
73571;SDS011;61854;48.510;-2.770;2022-07-22T01:48:18;16.15;;;9.10;;
73571;SDS011;61854;48.510;-2.770;2022-07-22T01:50:45;12.23;;;10.02;;
73571;SDS011;61854;48.510;-2.770;2022-07-22T01:53:11;13.70;;;9.57;;
73571;SDS011;61854;48.510;-2.770;2022-07-22T01:55:38;13.50;;;9.25;;
73571;SDS011;61854;48.510;-2.770;2022-07-22T01:58:03;20.15;;;9.95;;
73571;SDS011;61854;48.510;-2.770;2022-07-22T02:00:30;13.32;;;9.82;;
73571;SDS011;61854;48.510;-2.770;2022-07-22T02:02:57;15.40;;;10.02;;
73571;SDS011;61854;48.510;-2.770;2022-07-22T02:05:22;17.30;;;10.98;;
73571;SDS011;61854;48.510;-2.770;2022-07-22T02:07:49;15.52;;;10.40;;
73571;SDS011;61854;48.510;-2.770;2022-07-22T02:10:14;16.73;;;10.60;;
73571;SDS011;61854;48.510;-2.770;2022-07-22T02:12:40;15.95;;;10.32;;
73571;SDS011;61854;48.510;-2.770;2022-07-22T02:15:06;17.73;;;11.25;;
73571;SDS011;61854;48.510;-2.770;2022-07-22T02:17:33;14.77;;;10.90;;
73571;SDS011;61854;48.510;-2.770;2022-07-22T02:19:59;17.45;;;10.98;;
73571;SDS011;61854;48.510;-2.770;2022-07-22T02:22:25;14.68;;;10.35;;
73571;SDS011;61854;48.510;-2.770;2022-07-22T02:24:50;13.32;;;10.63;;
73571;SDS011;61854;48.510;-2.770;2022-07-22T02:27:16;16.08;;;11.63;;
73571;SDS011;61854;48.510;-2.770;2022-07-22T02:29:42;16.27;;;11.98;;
73571;SDS011;61854;48.510;-2.770;2022-07-22T02:32:07;15.70;;;11.70;;
73571;SDS011;61854;48.510;-2.770;2022-07-22T02:34:33;14.13;;;11.45;;
73571;SDS011;61854;48.510;-2.770;2022-07-22T02:36:59;19.40;;;12.82;;
73571;SDS011;61854;48.510;-2.770;2022-07-22T02:39:25;18.48;;;13.68;;
73571;SDS011;61854;48.510;-2.770;2022-07-22T02:41:50;20.85;;;12.45;;
73571;SDS011;61854;48.510;-2.770;2022-07-22T02:44:16;21.50;;;13.93;;
73571;SDS011;61854;48.510;-2.770;2022-07-22T02:46:41;16.15;;;14.20;;
73571;SDS011;61854;48.510;-2.770;2022-07-22T02:49:07;18.33;;;15.75;;
73571;SDS011;61854;48.510;-2.770;2022-07-22T02:51:33;20.88;;;16.23;;
73571;SDS011;61854;48.510;-2.770;2022-07-22T02:53:58;19.70;;;14.57;;
73571;SDS011;61854;48.510;-2.770;2022-07-22T02:56:24;20.20;;;14.60;;
73571;SDS011;61854;48.510;-2.770;2022-07-22T02:58:50;20.13;;;15.73;;
73571;SDS011;61854;48.510;-2.770;2022-07-22T03:01:17;18.27;;;14.70;;
73571;SDS011;61854;48.510;-2.770;2022-07-22T03:03:44;20.13;;;15.90;;
73571;SDS011;61854;48.510;-2.770;2022-07-22T03:06:10;20.33;;;14.88;;
73571;SDS011;61854;48.510;-2.770;2022-07-22T03:08:36;21.13;;;15.77;;
73571;SDS011;61854;48.510;-2.770;2022-07-22T03:11:02;21.65;;;16.38;;
73571;SDS011;61854;48.510;-2.770;2022-07-22T03:13:28;21.88;;;15.63;;
73571;SDS011;61854;48.510;-2.770;2022-07-22T03:15:53;20.80;;;15.75;;
73571;SDS011;61854;48.510;-2.770;2022-07-22T03:18:19;22.00;;;15.23;;
73571;SDS011;61854;48.510;-2.770;2022-07-22T03:20:45;22.00;;;16.58;;
73571;SDS011;61854;48.510;-2.770;2022-07-22T03:23:10;21.65;;;16.40;;
73571;SDS011;61854;48.510;-2.770;2022-07-22T03:25:36;18.50;;;16.05;;
73571;SDS011;61854;48.510;-2.770;2022-07-22T03:28:03;22.38;;;17.73;;
73571;SDS011;61854;48.510;-2.770;2022-07-22T03:30:29;22.35;;;15.43;;
73571;SDS011;61854;48.510;-2.770;2022-07-22T03:32:55;22.02;;;15.75;;
73571;SDS011;61854;48.510;-2.770;2022-07-22T03:35:21;18.95;;;16.13;;
73571;SDS011;61854;48.510;-2.770;2022-07-22T03:37:47;20.92;;;16.63;;
73571;SDS011;61854;48.510;-2.770;2022-07-22T03:40:12;20.02;;;15.80;;
73571;SDS011;61854;48.510;-2.770;2022-07-22T03:42:38;19.63;;;15.73;;
73571;SDS011;61854;48.510;-2.770;2022-07-22T03:45:04;17.73;;;15.48;;
73571;SDS011;61854;48.510;-2.770;2022-07-22T03:47:30;24.33;;;16.75;;
73571;SDS011;61854;48.510;-2.770;2022-07-22T03:49:55;20.90;;;14.80;;
73571;SDS011;61854;48.510;-2.770;2022-07-22T03:52:23;19.87;;;15.40;;
73571;SDS011;61854;48.510;-2.770;2022-07-22T03:54:49;23.60;;;14.80;;
73571;SDS011;61854;48.510;-2.770;2022-07-22T03:57:15;21.85;;;14.63;;
73571;SDS011;61854;48.510;-2.770;2022-07-22T03:59:40;19.15;;;14.35;;
73571;SDS011;61854;48.510;-2.770;2022-07-22T04:02:06;16.95;;;14.38;;
73571;SDS011;61854;48.510;-2.770;2022-07-22T04:04:31;17.25;;;13.50;;
73571;SDS011;61854;48.510;-2.770;2022-07-22T04:06:57;21.85;;;14.40;;
73571;SDS011;61854;48.510;-2.770;2022-07-22T04:09:23;19.58;;;13.43;;
73571;SDS011;61854;48.510;-2.770;2022-07-22T04:11:48;16.40;;;12.88;;
73571;SDS011;61854;48.510;-2.770;2022-07-22T04:14:15;18.08;;;13.68;;
73571;SDS011;61854;48.510;-2.770;2022-07-22T04:16:41;16.58;;;13.75;;
73571;SDS011;61854;48.510;-2.770;2022-07-22T04:19:08;18.40;;;13.93;;
73571;SDS011;61854;48.510;-2.770;2022-07-22T04:21:34;18.30;;;12.93;;
73571;SDS011;61854;48.510;-2.770;2022-07-22T04:24:00;19.38;;;13.32;;
73571;SDS011;61854;48.510;-2.770;2022-07-22T04:26:26;19.48;;;13.18;;
73571;SDS011;61854;48.510;-2.770;2022-07-22T04:28:51;18.77;;;12.95;;
73571;SDS011;61854;48.510;-2.770;2022-07-22T04:31:17;19.02;;;14.30;;
73571;SDS011;61854;48.510;-2.770;2022-07-22T04:33:43;19.30;;;13.60;;
73571;SDS011;61854;48.510;-2.770;2022-07-22T04:36:08;19.63;;;13.00;;
73571;SDS011;61854;48.510;-2.770;2022-07-22T04:38:34;16.35;;;12.73;;
73571;SDS011;61854;48.510;-2.770;2022-07-22T04:41:00;20.33;;;13.52;;
73571;SDS011;61854;48.510;-2.770;2022-07-22T04:43:25;17.42;;;12.65;;
73571;SDS011;61854;48.510;-2.770;2022-07-22T04:45:51;18.50;;;14.02;;
73571;SDS011;61854;48.510;-2.770;2022-07-22T04:48:17;19.35;;;13.02;;
73571;SDS011;61854;48.510;-2.770;2022-07-22T04:50:44;19.58;;;14.32;;
73571;SDS011;61854;48.510;-2.770;2022-07-22T04:53:09;14.20;;;12.13;;
73571;SDS011;61854;48.510;-2.770;2022-07-22T04:55:35;16.65;;;13.45;;
73571;SDS011;61854;48.510;-2.770;2022-07-22T04:58:01;20.80;;;14.95;;
73571;SDS011;61854;48.510;-2.770;2022-07-22T05:00:26;20.40;;;13.02;;
73571;SDS011;61854;48.510;-2.770;2022-07-22T05:02:52;19.10;;;13.25;;
73571;SDS011;61854;48.510;-2.770;2022-07-22T05:05:18;19.83;;;13.10;;
73571;SDS011;61854;48.510;-2.770;2022-07-22T05:07:44;21.77;;;16.33;;
73571;SDS011;61854;48.510;-2.770;2022-07-22T05:10:12;18.23;;;15.25;;
73571;SDS011;61854;48.510;-2.770;2022-07-22T05:12:38;16.65;;;14.77;;
73571;SDS011;61854;48.510;-2.770;2022-07-22T05:15:04;20.88;;;14.82;;
73571;SDS011;61854;48.510;-2.770;2022-07-22T05:17:30;16.63;;;14.00;;
73571;SDS011;61854;48.510;-2.770;2022-07-22T05:19:55;18.95;;;14.25;;
73571;SDS011;61854;48.510;-2.770;2022-07-22T05:22:21;19.92;;;15.57;;
73571;SDS011;61854;48.510;-2.770;2022-07-22T05:24:47;20.65;;;15.18;;
73571;SDS011;61854;48.510;-2.770;2022-07-22T05:27:12;18.42;;;14.73;;
73571;SDS011;61854;48.510;-2.770;2022-07-22T05:29:38;20.00;;;15.15;;
73571;SDS011;61854;48.510;-2.770;2022-07-22T05:32:04;21.38;;;16.27;;
73571;SDS011;61854;48.510;-2.770;2022-07-22T05:34:30;19.73;;;15.98;;
73571;SDS011;61854;48.510;-2.770;2022-07-22T05:36:55;25.25;;;15.45;;
73571;SDS011;61854;48.510;-2.770;2022-07-22T05:39:21;21.00;;;15.50;;
73571;SDS011;61854;48.510;-2.770;2022-07-22T05:41:47;21.80;;;15.30;;
73571;SDS011;61854;48.510;-2.770;2022-07-22T05:44:12;29.27;;;15.90;;
73571;SDS011;61854;48.510;-2.770;2022-07-22T05:46:38;22.65;;;15.55;;
73571;SDS011;61854;48.510;-2.770;2022-07-22T05:49:04;19.08;;;15.57;;
73571;SDS011;61854;48.510;-2.770;2022-07-22T05:51:30;21.48;;;14.85;;
73571;SDS011;61854;48.510;-2.770;2022-07-22T05:53:55;19.58;;;14.82;;
73571;SDS011;61854;48.510;-2.770;2022-07-22T05:56:21;20.67;;;16.23;;
73571;SDS011;61854;48.510;-2.770;2022-07-22T05:58:47;19.25;;;15.10;;
73571;SDS011;61854;48.510;-2.770;2022-07-22T06:01:12;20.38;;;15.73;;
73571;SDS011;61854;48.510;-2.770;2022-07-22T06:03:38;20.17;;;14.00;;
73571;SDS011;61854;48.510;-2.770;2022-07-22T06:06:04;18.50;;;13.30;;
73571;SDS011;61854;48.510;-2.770;2022-07-22T06:08:33;20.13;;;14.27;;
73571;SDS011;61854;48.510;-2.770;2022-07-22T06:10:59;16.00;;;10.93;;
73571;SDS011;61854;48.510;-2.770;2022-07-22T06:13:25;24.33;;;11.07;;
73571;SDS011;61854;48.510;-2.770;2022-07-22T06:15:51;13.20;;;9.43;;
73571;SDS011;61854;48.510;-2.770;2022-07-22T06:18:17;16.77;;;9.60;;
73571;SDS011;61854;48.510;-2.770;2022-07-22T06:20:43;13.13;;;6.80;;
73571;SDS011;61854;48.510;-2.770;2022-07-22T06:23:08;15.57;;;6.82;;
73571;SDS011;61854;48.510;-2.770;2022-07-22T06:25:34;12.75;;;6.43;;
73571;SDS011;61854;48.510;-2.770;2022-07-22T06:28:00;12.20;;;7.10;;
73571;SDS011;61854;48.510;-2.770;2022-07-22T06:30:26;14.88;;;6.85;;
73571;SDS011;61854;48.510;-2.770;2022-07-22T06:32:52;11.68;;;5.55;;
73571;SDS011;61854;48.510;-2.770;2022-07-22T06:35:18;12.60;;;5.63;;
73571;SDS011;61854;48.510;-2.770;2022-07-22T06:37:44;14.95;;;5.55;;
73571;SDS011;61854;48.510;-2.770;2022-07-22T06:40:09;11.95;;;5.90;;
73571;SDS011;61854;48.510;-2.770;2022-07-22T06:42:36;11.88;;;5.05;;
73571;SDS011;61854;48.510;-2.770;2022-07-22T06:45:01;7.05;;;4.57;;
73571;SDS011;61854;48.510;-2.770;2022-07-22T06:47:28;7.72;;;3.97;;
73571;SDS011;61854;48.510;-2.770;2022-07-22T06:49:54;11.75;;;4.60;;
73571;SDS011;61854;48.510;-2.770;2022-07-22T06:52:19;8.05;;;4.50;;
73571;SDS011;61854;48.510;-2.770;2022-07-22T06:54:45;12.60;;;4.38;;
73571;SDS011;61854;48.510;-2.770;2022-07-22T06:57:11;10.35;;;4.22;;
73571;SDS011;61854;48.510;-2.770;2022-07-22T06:59:36;9.80;;;4.78;;
73571;SDS011;61854;48.510;-2.770;2022-07-22T07:02:02;9.15;;;4.03;;
73571;SDS011;61854;48.510;-2.770;2022-07-22T07:04:28;9.45;;;4.03;;
73571;SDS011;61854;48.510;-2.770;2022-07-22T07:06:54;10.90;;;4.78;;
73571;SDS011;61854;48.510;-2.770;2022-07-22T07:09:20;13.27;;;4.93;;
73571;SDS011;61854;48.510;-2.770;2022-07-22T07:11:46;10.50;;;4.13;;
73571;SDS011;61854;48.510;-2.770;2022-07-22T07:14:11;10.02;;;4.03;;
73571;SDS011;61854;48.510;-2.770;2022-07-22T07:16:37;12.32;;;4.15;;
73571;SDS011;61854;48.510;-2.770;2022-07-22T07:19:02;9.35;;;3.25;;
73571;SDS011;61854;48.510;-2.770;2022-07-22T07:21:28;9.20;;;3.20;;
73571;SDS011;61854;48.510;-2.770;2022-07-22T07:23:55;10.35;;;3.55;;
73571;SDS011;61854;48.510;-2.770;2022-07-22T07:26:20;10.70;;;3.50;;
73571;SDS011;61854;48.510;-2.770;2022-07-22T07:28:46;9.60;;;3.35;;
73571;SDS011;61854;48.510;-2.770;2022-07-22T07:31:12;13.20;;;3.17;;
73571;SDS011;61854;48.510;-2.770;2022-07-22T07:33:38;7.55;;;2.92;;
73571;SDS011;61854;48.510;-2.770;2022-07-22T07:36:04;11.85;;;3.28;;
73571;SDS011;61854;48.510;-2.770;2022-07-22T07:38:30;13.18;;;3.55;;
73571;SDS011;61854;48.510;-2.770;2022-07-22T07:40:56;10.68;;;2.95;;
73571;SDS011;61854;48.510;-2.770;2022-07-22T07:43:22;7.75;;;2.90;;
73571;SDS011;61854;48.510;-2.770;2022-07-22T07:45:48;11.60;;;3.17;;
73571;SDS011;61854;48.510;-2.770;2022-07-22T07:48:13;14.00;;;3.22;;
73571;SDS011;61854;48.510;-2.770;2022-07-22T07:50:39;9.75;;;2.72;;
73571;SDS011;61854;48.510;-2.770;2022-07-22T07:53:04;12.73;;;3.22;;
73571;SDS011;61854;48.510;-2.770;2022-07-22T07:55:30;8.25;;;2.80;;
73571;SDS011;61854;48.510;-2.770;2022-07-22T07:57:57;11.18;;;3.15;;
73571;SDS011;61854;48.510;-2.770;2022-07-22T08:00:24;12.57;;;2.75;;
73571;SDS011;61854;48.510;-2.770;2022-07-22T08:02:55;14.65;;;2.90;;
73571;SDS011;61854;48.510;-2.770;2022-07-22T08:05:21;9.27;;;2.63;;
73571;SDS011;61854;48.510;-2.770;2022-07-22T08:07:47;12.55;;;2.67;;
73571;SDS011;61854;48.510;-2.770;2022-07-22T08:10:13;8.20;;;2.60;;
73571;SDS011;61854;48.510;-2.770;2022-07-22T08:12:39;9.57;;;2.67;;
73571;SDS011;61854;48.510;-2.770;2022-07-22T08:15:04;7.78;;;2.38;;
73571;SDS011;61854;48.510;-2.770;2022-07-22T08:17:32;12.10;;;2.20;;
73571;SDS011;61854;48.510;-2.770;2022-07-22T08:19:58;8.32;;;2.30;;
73571;SDS011;61854;48.510;-2.770;2022-07-22T08:22:24;7.75;;;2.00;;
73571;SDS011;61854;48.510;-2.770;2022-07-22T08:24:50;8.23;;;2.40;;
73571;SDS011;61854;48.510;-2.770;2022-07-22T08:27:16;10.73;;;2.15;;
73571;SDS011;61854;48.510;-2.770;2022-07-22T08:29:41;6.63;;;2.20;;
73571;SDS011;61854;48.510;-2.770;2022-07-22T08:32:07;9.27;;;2.58;;
73571;SDS011;61854;48.510;-2.770;2022-07-22T08:34:32;6.82;;;1.90;;
73571;SDS011;61854;48.510;-2.770;2022-07-22T08:36:59;13.13;;;2.20;;
73571;SDS011;61854;48.510;-2.770;2022-07-22T08:39:25;22.45;;;2.78;;
73571;SDS011;61854;48.510;-2.770;2022-07-22T08:41:50;9.00;;;2.28;;
73571;SDS011;61854;48.510;-2.770;2022-07-22T08:44:16;6.22;;;2.15;;
73571;SDS011;61854;48.510;-2.770;2022-07-22T08:46:43;7.57;;;2.30;;
73571;SDS011;61854;48.510;-2.770;2022-07-22T08:49:11;10.55;;;2.28;;
73571;SDS011;61854;48.510;-2.770;2022-07-22T08:51:38;7.85;;;1.85;;
73571;SDS011;61854;48.510;-2.770;2022-07-22T08:54:04;8.65;;;2.25;;
73571;SDS011;61854;48.510;-2.770;2022-07-22T08:56:30;9.65;;;2.40;;
73571;SDS011;61854;48.510;-2.770;2022-07-22T08:58:55;8.77;;;2.40;;
73571;SDS011;61854;48.510;-2.770;2022-07-22T09:01:21;8.90;;;2.05;;
73571;SDS011;61854;48.510;-2.770;2022-07-22T09:03:48;67.57;;;5.10;;
73571;SDS011;61854;48.510;-2.770;2022-07-22T09:06:16;13.05;;;2.88;;
73571;SDS011;61854;48.510;-2.770;2022-07-22T09:08:53;8.90;;;2.17;;
73571;SDS011;61854;48.510;-2.770;2022-07-22T09:11:20;8.65;;;2.35;;
73571;SDS011;61854;48.510;-2.770;2022-07-22T09:13:48;9.13;;;2.00;;
73571;SDS011;61854;48.510;-2.770;2022-07-22T09:16:14;13.95;;;2.60;;
73571;SDS011;61854;48.510;-2.770;2022-07-22T09:18:52;11.40;;;2.92;;
73571;SDS011;61854;48.510;-2.770;2022-07-22T09:21:22;11.48;;;3.15;;
73571;SDS011;61854;48.510;-2.770;2022-07-22T09:23:48;7.78;;;2.78;;
73571;SDS011;61854;48.510;-2.770;2022-07-22T09:26:33;8.73;;;2.10;;
73571;SDS011;61854;48.510;-2.770;2022-07-22T09:29:00;12.88;;;2.53;;
73571;SDS011;61854;48.510;-2.770;2022-07-22T09:31:27;10.48;;;2.65;;
73571;SDS011;61854;48.510;-2.770;2022-07-22T09:33:58;8.40;;;2.40;;
73571;SDS011;61854;48.510;-2.770;2022-07-22T09:36:24;8.75;;;2.30;;
73571;SDS011;61854;48.510;-2.770;2022-07-22T09:38:50;7.60;;;2.53;;
73571;SDS011;61854;48.510;-2.770;2022-07-22T09:41:16;9.40;;;2.30;;
73571;SDS011;61854;48.510;-2.770;2022-07-22T09:43:42;7.60;;;2.15;;
73571;SDS011;61854;48.510;-2.770;2022-07-22T09:46:08;12.60;;;2.50;;
73571;SDS011;61854;48.510;-2.770;2022-07-22T09:48:35;11.60;;;2.53;;
73571;SDS011;61854;48.510;-2.770;2022-07-22T09:51:05;14.38;;;2.58;;
73571;SDS011;61854;48.510;-2.770;2022-07-22T09:53:31;8.30;;;2.25;;
73571;SDS011;61854;48.510;-2.770;2022-07-22T09:55:58;6.00;;;2.58;;
73571;SDS011;61854;48.510;-2.770;2022-07-22T09:58:26;10.82;;;2.95;;
73571;SDS011;61854;48.510;-2.770;2022-07-22T10:00:53;9.27;;;2.10;;
73571;SDS011;61854;48.510;-2.770;2022-07-22T10:03:26;6.07;;;2.47;;
73571;SDS011;61854;48.510;-2.770;2022-07-22T10:05:55;8.57;;;2.55;;
73571;SDS011;61854;48.510;-2.770;2022-07-22T10:08:22;6.32;;;2.20;;
73571;SDS011;61854;48.510;-2.770;2022-07-22T10:10:50;7.28;;;2.47;;
73571;SDS011;61854;48.510;-2.770;2022-07-22T10:13:18;7.03;;;2.20;;
73571;SDS011;61854;48.510;-2.770;2022-07-22T10:15:44;7.47;;;2.40;;
73571;SDS011;61854;48.510;-2.770;2022-07-22T10:18:14;8.02;;;2.50;;
73571;SDS011;61854;48.510;-2.770;2022-07-22T10:20:42;8.38;;;2.75;;
73571;SDS011;61854;48.510;-2.770;2022-07-22T10:23:09;70.43;;;5.97;;
73571;SDS011;61854;48.510;-2.770;2022-07-22T10:28:24;6.50;;;2.45;;
73571;SDS011;61854;48.510;-2.770;2022-07-22T10:33:48;10.55;;;2.65;;
73571;SDS011;61854;48.510;-2.770;2022-07-22T10:36:29;7.60;;;2.50;;
73571;SDS011;61854;48.510;-2.770;2022-07-22T10:39:06;8.27;;;2.40;;
73571;SDS011;61854;48.510;-2.770;2022-07-22T10:41:35;22.27;;;2.35;;
73571;SDS011;61854;48.510;-2.770;2022-07-22T10:44:02;8.85;;;2.53;;
73571;SDS011;61854;48.510;-2.770;2022-07-22T10:49:17;8.52;;;3.15;;
73571;SDS011;61854;48.510;-2.770;2022-07-22T10:54:32;5.90;;;2.15;;
73571;SDS011;61854;48.510;-2.770;2022-07-22T10:56:59;8.75;;;2.67;;
73571;SDS011;61854;48.510;-2.770;2022-07-22T10:59:25;8.40;;;2.38;;
73571;SDS011;61854;48.510;-2.770;2022-07-22T11:01:51;8.43;;;2.28;;
73571;SDS011;61854;48.510;-2.770;2022-07-22T11:04:20;8.02;;;1.90;;
73571;SDS011;61854;48.510;-2.770;2022-07-22T11:06:51;7.65;;;2.28;;
73571;SDS011;61854;48.510;-2.770;2022-07-22T11:09:19;7.32;;;2.45;;
73571;SDS011;61854;48.510;-2.770;2022-07-22T11:16:51;9.60;;;2.67;;
73571;SDS011;61854;48.510;-2.770;2022-07-22T11:19:22;10.20;;;2.75;;
73571;SDS011;61854;48.510;-2.770;2022-07-22T11:21:50;7.30;;;2.90;;
73571;SDS011;61854;48.510;-2.770;2022-07-22T11:24:18;7.68;;;2.95;;
73571;SDS011;61854;48.510;-2.770;2022-07-22T11:26:48;10.15;;;3.58;;
73571;SDS011;61854;48.510;-2.770;2022-07-22T11:29:24;8.13;;;3.10;;
73571;SDS011;61854;48.510;-2.770;2022-07-22T11:31:52;7.28;;;2.60;;
73571;SDS011;61854;48.510;-2.770;2022-07-22T11:34:19;8.40;;;2.50;;
73571;SDS011;61854;48.510;-2.770;2022-07-22T11:36:48;6.25;;;2.65;;
73571;SDS011;61854;48.510;-2.770;2022-07-22T11:39:17;6.15;;;2.58;;
73571;SDS011;61854;48.510;-2.770;2022-07-22T11:41:45;8.85;;;3.13;;
73571;SDS011;61854;48.510;-2.770;2022-07-22T11:44:10;12.00;;;2.88;;
73571;SDS011;61854;48.510;-2.770;2022-07-22T11:46:37;9.35;;;2.80;;
73571;SDS011;61854;48.510;-2.770;2022-07-22T11:49:05;8.05;;;2.58;;
73571;SDS011;61854;48.510;-2.770;2022-07-22T11:51:32;8.38;;;2.38;;
73571;SDS011;61854;48.510;-2.770;2022-07-22T11:53:59;47.78;;;4.38;;
73571;SDS011;61854;48.510;-2.770;2022-07-22T11:56:26;19.25;;;2.90;;
73571;SDS011;61854;48.510;-2.770;2022-07-22T11:58:53;12.23;;;2.67;;
73571;SDS011;61854;48.510;-2.770;2022-07-22T12:01:20;13.52;;;2.65;;
73571;SDS011;61854;48.510;-2.770;2022-07-22T12:03:48;11.82;;;2.67;;
73571;SDS011;61854;48.510;-2.770;2022-07-22T12:06:25;9.57;;;2.57;;
73571;SDS011;61854;48.510;-2.770;2022-07-22T12:08:53;16.77;;;3.25;;
73571;SDS011;61854;48.510;-2.770;2022-07-22T12:11:28;13.40;;;3.65;;
73571;SDS011;61854;48.510;-2.770;2022-07-22T12:13:54;10.15;;;3.80;;
73571;SDS011;61854;48.510;-2.770;2022-07-22T12:16:21;30.58;;;4.68;;
73571;SDS011;61854;48.510;-2.770;2022-07-22T12:21:25;18.27;;;4.18;;
73571;SDS011;61854;48.510;-2.770;2022-07-22T12:23:53;13.52;;;4.20;;
73571;SDS011;61854;48.510;-2.770;2022-07-22T12:31:50;8.82;;;3.60;;
73571;SDS011;61854;48.510;-2.770;2022-07-22T12:34:34;6.28;;;3.28;;
73571;SDS011;61854;48.510;-2.770;2022-07-22T12:37:17;10.35;;;3.30;;
73571;SDS011;61854;48.510;-2.770;2022-07-22T12:40:00;8.95;;;3.30;;
73571;SDS011;61854;48.510;-2.770;2022-07-22T12:47:39;9.73;;;2.50;;
73571;SDS011;61854;48.510;-2.770;2022-07-22T12:53:02;10.18;;;2.67;;
73571;SDS011;61854;48.510;-2.770;2022-07-22T12:55:33;9.55;;;2.42;;
73571;SDS011;61854;48.510;-2.770;2022-07-22T12:58:02;6.97;;;2.20;;
73571;SDS011;61854;48.510;-2.770;2022-07-22T13:02:56;10.13;;;2.60;;
73571;SDS011;61854;48.510;-2.770;2022-07-22T13:05:23;12.02;;;2.70;;
73571;SDS011;61854;48.510;-2.770;2022-07-22T13:07:49;11.65;;;1.92;;
73571;SDS011;61854;48.510;-2.770;2022-07-22T13:10:15;10.02;;;2.22;;
73571;SDS011;61854;48.510;-2.770;2022-07-22T13:12:41;11.10;;;2.25;;
73571;SDS011;61854;48.510;-2.770;2022-07-22T13:15:07;9.93;;;2.00;;
73571;SDS011;61854;48.510;-2.770;2022-07-22T13:17:34;8.68;;;2.03;;
73571;SDS011;61854;48.510;-2.770;2022-07-22T13:20:00;8.43;;;2.03;;
73571;SDS011;61854;48.510;-2.770;2022-07-22T13:22:26;8.07;;;1.80;;
73571;SDS011;61854;48.510;-2.770;2022-07-22T13:24:51;6.55;;;1.90;;
73571;SDS011;61854;48.510;-2.770;2022-07-22T13:27:17;24.17;;;2.78;;
73571;SDS011;61854;48.510;-2.770;2022-07-22T13:29:43;14.48;;;2.05;;
73571;SDS011;61854;48.510;-2.770;2022-07-22T13:32:08;7.05;;;1.60;;
73571;SDS011;61854;48.510;-2.770;2022-07-22T13:34:34;9.27;;;2.10;;
73571;SDS011;61854;48.510;-2.770;2022-07-22T13:37:00;5.78;;;1.55;;
73571;SDS011;61854;48.510;-2.770;2022-07-22T13:39:26;20.40;;;2.13;;
73571;SDS011;61854;48.510;-2.770;2022-07-22T13:41:52;9.90;;;1.63;;
73571;SDS011;61854;48.510;-2.770;2022-07-22T13:44:17;6.05;;;1.65;;
73571;SDS011;61854;48.510;-2.770;2022-07-22T13:46:43;9.55;;;1.90;;
73571;SDS011;61854;48.510;-2.770;2022-07-22T13:49:09;4.97;;;1.90;;
73571;SDS011;61854;48.510;-2.770;2022-07-22T13:51:34;8.13;;;1.60;;
73571;SDS011;61854;48.510;-2.770;2022-07-22T13:54:00;3.88;;;1.48;;
73571;SDS011;61854;48.510;-2.770;2022-07-22T13:56:26;6.82;;;1.52;;
73571;SDS011;61854;48.510;-2.770;2022-07-22T13:58:51;11.68;;;1.50;;
73571;SDS011;61854;48.510;-2.770;2022-07-22T14:01:17;11.95;;;1.80;;
73571;SDS011;61854;48.510;-2.770;2022-07-22T14:03:43;14.30;;;1.65;;
73571;SDS011;61854;48.510;-2.770;2022-07-22T14:06:08;10.43;;;1.67;;
73571;SDS011;61854;48.510;-2.770;2022-07-22T14:08:34;10.20;;;1.67;;
73571;SDS011;61854;48.510;-2.770;2022-07-22T14:11:00;10.02;;;1.70;;
73571;SDS011;61854;48.510;-2.770;2022-07-22T14:13:26;6.75;;;1.50;;
73571;SDS011;61854;48.510;-2.770;2022-07-22T14:15:52;9.27;;;1.40;;
73571;SDS011;61854;48.510;-2.770;2022-07-22T14:18:18;3.33;;;1.10;;
73571;SDS011;61854;48.510;-2.770;2022-07-22T14:20:44;4.40;;;1.10;;
73571;SDS011;61854;48.510;-2.770;2022-07-22T14:23:09;6.07;;;1.33;;
73571;SDS011;61854;48.510;-2.770;2022-07-22T14:25:36;7.15;;;1.40;;
73571;SDS011;61854;48.510;-2.770;2022-07-22T14:28:03;29.30;;;2.28;;
73571;SDS011;61854;48.510;-2.770;2022-07-22T14:30:30;6.22;;;1.52;;
73571;SDS011;61854;48.510;-2.770;2022-07-22T14:32:57;6.67;;;1.27;;
73571;SDS011;61854;48.510;-2.770;2022-07-22T14:35:23;7.72;;;1.90;;
73571;SDS011;61854;48.510;-2.770;2022-07-22T14:37:49;6.07;;;1.45;;
73571;SDS011;61854;48.510;-2.770;2022-07-22T14:40:15;5.47;;;1.50;;
73571;SDS011;61854;48.510;-2.770;2022-07-22T14:42:41;4.30;;;1.20;;
73571;SDS011;61854;48.510;-2.770;2022-07-22T14:45:07;5.20;;;1.08;;
73571;SDS011;61854;48.510;-2.770;2022-07-22T14:47:34;5.93;;;1.27;;
73571;SDS011;61854;48.510;-2.770;2022-07-22T14:50:01;7.72;;;1.60;;
73571;SDS011;61854;48.510;-2.770;2022-07-22T14:52:28;5.05;;;1.50;;